Terminal Aerodrome Forecast
Issued by NWS Cleveland, OH

Home | Current Version | Previous Version | Text Only | Print | Product List | Glossary On
Versions: 1 2 3 4 5 6 7 8 9 10 11 12 13 14 15 16 17 18 19 20
000
FTUS41 KCLE 212300
TAFYNG
TAF
KYNG 212338Z 2200/2224 33008KT 6SM -DZ BR OVC006
      TEMPO 2200/2203 4SM -DZ BR
     FM220400 35008KT P6SM OVC008
      TEMPO 2204/2207 5SM -DZ BR
     FM221400 36010KT P6SM OVC015
     FM221700 36010KT P6SM OVC025=

USA.gov is the U.S. government's official web portal to all federal, state and local government web resources and services.